createdAt,value
2019-02-19T00:01:34.441Z,185.93
2019-02-19T00:04:02.981Z,170.97
2019-02-19T00:06:31.485Z,122.05
2019-02-19T00:08:59.986Z,133.47
2019-02-19T00:11:28.486Z,139.45
2019-02-19T00:13:56.966Z,118.30
2019-02-19T00:16:25.498Z,107.90
2019-02-19T00:18:53.989Z,114.03
2019-02-19T00:21:22.471Z,113.17
2019-02-19T00:23:50.973Z,108.22
2019-02-19T00:26:19.458Z,82.62
2019-02-19T00:28:47.955Z,80.25
2019-02-19T00:31:16.451Z,88.22
2019-02-19T00:33:44.937Z,78.80
2019-02-19T00:36:13.425Z,76.40
2019-02-19T00:38:41.920Z,94.22
2019-02-19T00:41:10.399Z,79.25
2019-02-19T00:43:38.896Z,70.22
2019-02-19T00:46:07.378Z,64.15
2019-02-19T00:48:35.874Z,54.05
2019-02-19T00:51:04.376Z,55.33
2019-02-19T00:53:32.908Z,52.60
2019-02-19T00:56:01.389Z,53.65
2019-02-19T00:58:29.879Z,53.13
2019-02-19T01:00:58.371Z,52.08
2019-02-19T01:03:26.863Z,32.33
2019-02-19T01:05:55.348Z,33.60
2019-02-19T01:08:23.831Z,34.27
2019-02-19T01:10:52.385Z,27.60
2019-02-19T01:13:20.869Z,31.27
2019-02-19T01:15:49.358Z,25.50
2019-02-19T01:18:17.841Z,25.48
2019-02-19T01:20:46.338Z,26.55
2019-02-19T01:23:14.840Z,32.48
2019-02-19T01:25:43.354Z,52.85
2019-02-19T01:28:11.834Z,44.83
2019-02-19T01:30:40.326Z,35.65
2019-02-19T01:33:08.874Z,35.60
2019-02-19T01:35:37.376Z,42.67
2019-02-19T01:38:05.862Z,44.95
2019-02-19T01:40:34.359Z,55.55
2019-02-19T01:43:02.847Z,62.62
2019-02-19T01:45:34.102Z,53.00
2019-02-19T01:48:01.562Z,47.58
2019-02-19T01:50:30.061Z,45.33
2019-02-19T01:52:58.559Z,36.45
2019-02-19T01:55:27.084Z,26.37
2019-02-19T01:57:55.593Z,41.42
2019-02-19T02:00:24.077Z,36.05
2019-02-19T02:02:52.569Z,33.65
2019-02-19T02:05:21.069Z,37.28
2019-02-19T02:07:49.561Z,50.35
2019-02-19T02:10:18.048Z,38.90
2019-02-19T02:12:46.594Z,32.85
2019-02-19T02:15:15.067Z,33.38
2019-02-19T02:17:43.559Z,50.75
2019-02-19T02:20:12.063Z,48.52
2019-02-19T02:22:40.542Z,42.50
2019-02-19T02:25:09.034Z,44.63
2019-02-19T02:27:37.513Z,40.78
2019-02-19T02:30:07.115Z,45.55
2019-02-19T02:32:35.596Z,42.35
2019-02-19T02:35:04.104Z,33.60
2019-02-19T02:37:32.573Z,51.63
2019-02-19T02:40:01.079Z,50.55
2019-02-19T02:42:29.559Z,40.83
2019-02-19T02:44:58.052Z,42.15
2019-02-19T02:47:26.547Z,45.10
2019-02-19T02:49:55.033Z,49.03
2019-02-19T02:52:23.513Z,53.17
2019-02-19T02:54:52.018Z,51.13
2019-02-19T02:57:20.494Z,51.75
2019-02-19T02:59:48.989Z,54.08
2019-02-19T03:02:17.470Z,42.62
2019-02-19T03:04:45.981Z,43.05
2019-02-19T03:07:19.029Z,37.00
2019-02-19T03:09:47.515Z,32.88
2019-02-19T03:12:16.059Z,29.98
2019-02-19T03:14:44.546Z,26.75
2019-02-19T03:17:13.033Z,27.37
2019-02-19T03:19:41.520Z,27.25
2019-02-19T03:22:10.002Z,33.88
2019-02-19T03:24:38.493Z,30.05
2019-02-19T03:27:06.992Z,24.57
2019-02-19T03:29:35.481Z,27.45
2019-02-19T03:32:03.966Z,34.13
2019-02-19T03:34:32.460Z,35.43
2019-02-19T03:37:00.945Z,41.50
2019-02-19T03:39:29.433Z,42.25
2019-02-19T03:41:57.922Z,41.20
2019-02-19T03:44:26.403Z,43.13
2019-02-19T03:46:54.901Z,49.35
2019-02-19T03:49:23.393Z,44.65
2019-02-19T03:51:51.886Z,38.85
2019-02-19T03:54:20.365Z,34.98
2019-02-19T03:56:48.933Z,28.42
2019-02-19T03:59:17.419Z,24.43
2019-02-19T04:01:45.909Z,22.40
2019-02-19T04:04:14.397Z,24.43
2019-02-19T04:06:42.884Z,30.85
2019-02-19T04:09:11.373Z,36.30
2019-02-19T04:11:39.866Z,31.30
2019-02-19T04:14:08.411Z,32.13
2019-02-19T04:16:36.904Z,34.25
2019-02-19T04:19:05.398Z,29.32
2019-02-19T04:21:33.890Z,32.53
2019-02-19T04:24:02.374Z,37.45
2019-02-19T04:26:30.861Z,36.68
2019-02-19T04:28:59.340Z,36.83
2019-02-19T04:31:27.834Z,40.58
2019-02-19T04:33:56.335Z,42.48
2019-02-19T04:36:24.818Z,51.28
2019-02-19T04:38:53.308Z,49.30
2019-02-19T04:41:21.791Z,41.35
2019-02-19T04:43:50.279Z,35.43
2019-02-19T04:46:18.776Z,31.25
2019-02-19T04:48:47.268Z,39.38
2019-02-19T04:51:15.754Z,32.13
2019-02-19T04:53:44.251Z,27.00
2019-02-19T04:56:12.732Z,30.40
2019-02-19T04:58:41.234Z,31.20
2019-02-19T05:01:09.717Z,32.10
2019-02-19T05:03:38.210Z,31.62
2019-02-19T05:06:06.694Z,33.35
2019-02-19T05:08:35.188Z,36.05
2019-02-19T05:11:03.669Z,37.63
2019-02-19T05:13:32.157Z,40.43
2019-02-19T05:16:00.645Z,47.53
2019-02-19T05:18:29.134Z,47.10
2019-02-19T05:20:57.624Z,46.80
2019-02-19T05:23:26.114Z,34.90
2019-02-19T05:25:54.596Z,31.02
2019-02-19T05:28:23.093Z,36.03
2019-02-19T05:30:51.584Z,39.30
2019-02-19T05:33:20.076Z,36.42
2019-02-19T05:35:48.571Z,38.08
2019-02-19T05:38:17.059Z,45.25
2019-02-19T05:40:45.553Z,50.15
2019-02-19T05:43:14.067Z,145.97
2019-02-19T05:45:42.568Z,228.15
2019-02-19T05:48:11.076Z,169.60
2019-02-19T05:50:39.589Z,251.85
2019-02-19T05:53:08.066Z,85.20
2019-02-19T05:55:36.561Z,85.53
2019-02-19T05:58:05.054Z,155.80
2019-02-19T06:00:33.559Z,128.42
2019-02-19T06:03:02.052Z,65.57
2019-02-19T06:05:30.540Z,62.10
2019-02-19T06:07:59.030Z,52.88
2019-02-19T06:10:27.519Z,55.08
2019-02-19T06:12:56.002Z,58.83
2019-02-19T06:15:24.500Z,61.60
2019-02-19T06:17:52.984Z,60.67
2019-02-19T06:20:21.479Z,67.17
2019-02-19T06:22:49.961Z,94.22
2019-02-19T06:25:18.479Z,91.32
2019-02-19T06:27:46.959Z,95.15
2019-02-19T06:30:15.456Z,106.63
2019-02-19T06:32:43.952Z,117.47
2019-02-19T06:35:12.461Z,98.62
2019-02-19T06:37:40.946Z,96.30
2019-02-19T06:40:29.076Z,85.25
2019-02-19T06:42:57.557Z,83.62
2019-02-19T06:45:26.052Z,95.22
2019-02-19T06:47:54.545Z,120.60
2019-02-19T06:50:23.043Z,118.97
2019-02-19T06:52:51.545Z,99.37
2019-02-19T06:55:20.070Z,125.65
2019-02-19T06:57:48.576Z,121.25
2019-02-19T07:00:17.107Z,112.20
2019-02-19T07:02:56.495Z,95.05
2019-02-19T07:05:25.791Z,66.97
2019-02-19T07:07:54.279Z,61.75
2019-02-19T07:10:22.821Z,63.28
2019-02-19T07:12:51.327Z,72.82
2019-02-19T07:15:20.326Z,64.40
2019-02-19T07:17:48.842Z,67.20
2019-02-19T07:20:17.367Z,64.70
2019-02-19T07:22:45.867Z,62.98
2019-02-19T07:25:14.381Z,75.90
2019-02-19T07:27:42.876Z,81.65
2019-02-19T07:30:12.333Z,83.67
2019-02-19T07:32:40.830Z,84.70
2019-02-19T07:35:10.456Z,85.95
2019-02-19T07:37:38.947Z,86.32
2019-02-19T07:40:08.649Z,86.70
2019-02-19T07:42:37.143Z,79.25
2019-02-19T07:45:11.304Z,91.35
2019-02-19T07:47:39.821Z,88.33
2019-02-19T07:50:11.798Z,89.47
2019-02-19T07:52:40.317Z,84.07
2019-02-19T07:55:10.114Z,79.77
2019-02-19T07:57:38.617Z,81.40
2019-02-19T08:00:13.769Z,82.40
2019-02-19T08:02:42.284Z,82.15
2019-02-19T08:05:10.782Z,87.57
2019-02-19T08:07:39.273Z,75.17
2019-02-19T08:10:11.836Z,81.30
2019-02-19T08:12:40.344Z,73.83
2019-02-19T08:15:10.291Z,73.55
2019-02-19T08:17:38.802Z,79.05
2019-02-19T08:20:16.020Z,81.80
2019-02-19T08:22:41.359Z,79.77
2019-02-19T08:25:09.865Z,82.15
2019-02-19T08:27:38.359Z,85.75
2019-02-19T08:30:10.992Z,84.55
2019-02-19T08:32:39.201Z,88.33
2019-02-19T08:35:07.906Z,83.78
2019-02-19T08:37:36.426Z,85.55
2019-02-19T08:40:06.736Z,82.67
2019-02-19T08:42:35.242Z,88.90
2019-02-19T08:45:04.147Z,84.60
2019-02-19T08:47:32.624Z,75.28
2019-02-19T08:50:01.122Z,75.80
2019-02-19T08:52:29.658Z,76.47
2019-02-19T08:54:58.214Z,80.97
2019-02-19T08:57:26.757Z,74.87
2019-02-19T08:59:55.256Z,74.72
2019-02-19T09:02:23.771Z,81.67
2019-02-19T09:04:52.274Z,74.22
2019-02-19T09:07:20.796Z,80.30
2019-02-19T09:09:49.334Z,73.25
2019-02-19T09:12:17.816Z,90.77
2019-02-19T09:14:46.316Z,73.60
2019-02-19T09:17:14.818Z,69.55
2019-02-19T09:19:43.327Z,76.00
2019-02-19T09:22:12.001Z,83.17
2019-02-19T09:24:40.501Z,74.87
2019-02-19T09:27:08.985Z,76.70
2019-02-19T09:29:37.539Z,82.90
2019-02-19T09:32:06.035Z,73.30
2019-02-19T09:34:34.540Z,72.92
2019-02-19T09:37:03.040Z,69.55
2019-02-19T09:39:31.542Z,72.05
2019-02-19T09:42:00.035Z,69.70
2019-02-19T09:44:28.540Z,59.53
2019-02-19T09:46:57.057Z,60.20
2019-02-19T09:49:25.561Z,63.35
2019-02-19T09:51:54.076Z,66.55
2019-02-19T09:54:22.570Z,64.47
2019-02-19T09:56:51.074Z,55.40
2019-02-19T09:59:19.629Z,62.48
2019-02-19T10:01:48.170Z,72.53
2019-02-19T10:04:16.663Z,67.37
2019-02-19T10:06:45.172Z,67.22
2019-02-19T10:09:13.660Z,62.62
2019-02-19T10:11:42.181Z,62.67
2019-02-19T10:14:10.672Z,58.60
2019-02-19T10:16:41.713Z,54.75
2019-02-19T10:19:09.465Z,60.17
2019-02-19T10:21:37.961Z,45.48
2019-02-19T10:24:06.443Z,53.68
2019-02-19T10:26:34.942Z,42.17
2019-02-19T10:29:03.445Z,47.75
2019-02-19T10:31:31.944Z,64.20
2019-02-19T10:34:00.447Z,39.23
2019-02-19T10:36:28.938Z,34.73
2019-02-19T10:38:57.430Z,40.17
2019-02-19T10:41:25.917Z,36.73
2019-02-19T10:43:54.414Z,53.63
2019-02-19T10:46:22.911Z,63.33
2019-02-19T10:48:51.411Z,70.45
2019-02-19T10:51:19.999Z,43.15
2019-02-19T10:53:48.487Z,42.85
2019-02-19T10:56:17.026Z,45.98
2019-02-19T10:58:45.466Z,57.43
2019-02-19T11:01:13.966Z,38.78
2019-02-19T11:03:42.495Z,38.40
2019-02-19T11:06:10.987Z,41.45
2019-02-19T11:08:39.483Z,35.17
2019-02-19T11:11:07.986Z,41.80
2019-02-19T11:13:36.511Z,36.08
2019-02-19T11:16:05.013Z,28.83
2019-02-19T11:18:33.525Z,27.40
2019-02-19T11:21:02.004Z,46.70
2019-02-19T11:23:30.520Z,35.90
2019-02-19T11:25:59.012Z,36.13
2019-02-19T11:28:27.548Z,29.63
2019-02-19T11:30:56.043Z,30.27
2019-02-19T11:33:24.535Z,27.77
2019-02-19T11:35:54.781Z,30.48
2019-02-19T11:38:23.315Z,48.05
2019-02-19T11:40:51.809Z,30.88
2019-02-19T11:43:20.313Z,37.98
2019-02-19T11:45:48.791Z,41.68
2019-02-19T11:48:19.108Z,20.08
2019-02-19T11:50:47.670Z,34.25
2019-02-19T11:53:16.169Z,37.67
2019-02-19T11:55:44.668Z,26.23
2019-02-19T11:58:13.211Z,51.85
2019-02-19T12:00:45.328Z,40.20
2019-02-19T12:03:13.827Z,40.70
2019-02-19T12:05:42.324Z,38.55
2019-02-19T12:08:10.854Z,43.23
2019-02-19T12:10:39.348Z,37.85
2019-02-19T12:13:07.831Z,35.05
2019-02-19T12:15:36.330Z,46.15
2019-02-19T12:18:04.821Z,41.15
2019-02-19T12:20:33.309Z,34.63
2019-02-19T12:23:01.797Z,46.80
2019-02-19T12:25:30.343Z,37.38
2019-02-19T12:27:58.833Z,35.15
2019-02-19T12:30:27.327Z,25.95
2019-02-19T12:32:55.840Z,25.27
2019-02-19T12:35:24.387Z,26.45
2019-02-19T12:37:52.932Z,22.62
2019-02-19T12:40:21.466Z,32.58
2019-02-19T12:42:50.058Z,21.25
2019-02-19T12:45:18.572Z,33.33
2019-02-19T12:47:47.074Z,41.75
2019-02-19T12:50:16.910Z,22.75
2019-02-19T12:52:45.415Z,26.00
2019-02-19T12:55:13.890Z,25.90
2019-02-19T12:57:42.389Z,27.50
2019-02-19T13:00:18.856Z,23.52
2019-02-19T13:02:47.356Z,26.25
2019-02-19T13:05:16.438Z,39.48
2019-02-19T13:07:46.905Z,30.92
2019-02-19T13:10:15.259Z,32.88
2019-02-19T13:12:43.751Z,27.00
2019-02-19T13:15:18.171Z,33.02
2019-02-19T13:17:46.681Z,30.30
2019-02-19T13:20:15.409Z,43.73
2019-02-19T13:22:43.882Z,28.57
2019-02-19T13:25:12.482Z,33.60
2019-02-19T13:27:40.982Z,40.90
2019-02-19T13:30:18.347Z,32.93
2019-02-19T13:32:46.853Z,39.00
2019-02-19T13:35:15.357Z,20.65
2019-02-19T13:37:43.856Z,20.70
2019-02-19T13:40:17.401Z,23.90
2019-02-19T13:42:45.899Z,19.73
2019-02-19T13:45:17.679Z,21.75
2019-02-19T13:47:46.212Z,26.52
2019-02-19T13:50:29.337Z,32.45
2019-02-19T13:52:59.423Z,35.35
2019-02-19T13:55:32.173Z,30.90
2019-02-19T13:58:00.676Z,49.42
2019-02-19T14:00:30.737Z,32.60
2019-02-19T14:02:59.265Z,42.38
2019-02-19T14:05:27.747Z,41.13
2019-02-19T14:07:56.237Z,51.48
2019-02-19T14:10:24.730Z,53.23
2019-02-19T14:12:53.227Z,27.30
2019-02-19T14:15:32.147Z,25.75
2019-02-19T14:18:01.257Z,25.60
2019-02-19T14:20:40.435Z,25.75
2019-02-19T14:23:10.484Z,24.67
2019-02-19T14:25:52.889Z,30.08
2019-02-19T14:28:28.777Z,45.12
2019-02-19T14:31:15.321Z,63.17
2019-02-19T14:33:49.115Z,48.45
2019-02-19T14:36:19.918Z,59.05
2019-02-19T14:38:58.776Z,51.90
2019-02-19T14:41:34.917Z,49.20
2019-02-19T14:44:04.994Z,72.30
2019-02-19T14:46:40.871Z,89.37
2019-02-19T14:49:36.674Z,108.03
2019-02-19T14:52:05.016Z,125.40
2019-02-19T14:54:41.125Z,165.47
2019-02-19T14:57:11.182Z,73.30
2019-02-19T14:59:44.241Z,58.42
2019-02-19T15:02:20.098Z,42.30
2019-02-19T15:05:06.537Z,38.95
2019-02-19T15:07:36.613Z,43.98
2019-02-19T15:10:27.797Z,42.20
2019-02-19T15:12:57.869Z,58.52
2019-02-19T15:15:30.514Z,58.38
2019-02-19T15:18:15.667Z,58.87
2019-02-19T15:20:45.735Z,25.20
2019-02-19T15:23:32.192Z,29.80
2019-02-19T15:26:02.285Z,41.15
2019-02-19T15:28:47.458Z,23.25
2019-02-19T15:31:35.366Z,19.20
2019-02-19T15:34:21.677Z,15.88
2019-02-19T15:37:08.211Z,21.35
2019-02-19T15:39:41.243Z,42.43
2019-02-19T15:42:27.331Z,46.63
2019-02-19T15:44:57.389Z,29.77
2019-02-19T15:47:29.913Z,23.02
2019-02-19T15:50:18.410Z,42.25
2019-02-19T15:53:03.582Z,31.15
2019-02-19T15:55:49.821Z,28.75
2019-02-19T15:58:19.890Z,34.43
2019-02-19T16:01:06.372Z,37.58
2019-02-19T16:03:36.595Z,32.73
2019-02-19T16:06:24.860Z,22.75
2019-02-19T16:09:00.998Z,17.00
2019-02-19T16:11:37.186Z,16.00
2019-02-19T16:14:07.252Z,20.92
2019-02-19T16:16:37.320Z,19.23
2019-02-19T16:19:10.410Z,54.15
2019-02-19T16:21:49.394Z,72.67
2019-02-19T16:24:22.486Z,29.57
2019-02-19T16:27:07.624Z,24.05
2019-02-19T16:29:46.896Z,20.92
2019-02-19T16:32:32.028Z,29.37
2019-02-19T16:35:02.124Z,33.53
2019-02-19T16:37:44.153Z,57.25
2019-02-19T16:40:23.008Z,47.80
2019-02-19T16:43:11.402Z,68.57
2019-02-19T16:45:41.512Z,58.60
2019-02-19T16:48:11.577Z,37.17
2019-02-19T16:50:44.629Z,45.95
2019-02-19T16:53:20.502Z,30.62
2019-02-19T16:55:50.568Z,39.08
2019-02-19T16:58:32.398Z,60.55
2019-02-19T17:01:02.470Z,62.00
2019-02-19T17:03:41.567Z,39.63
2019-02-19T17:06:23.769Z,19.73
2019-02-19T17:08:56.335Z,23.32
2019-02-19T17:11:42.573Z,28.17
2019-02-19T17:14:12.644Z,18.85
2019-02-19T17:16:45.403Z,21.00
2019-02-19T17:19:21.547Z,18.75
2019-02-19T17:21:51.613Z,22.07
2019-02-19T17:24:21.688Z,27.87
2019-02-19T17:26:51.742Z,24.07
2019-02-19T17:29:38.023Z,16.65
2019-02-19T17:32:17.162Z,20.95
2019-02-19T17:34:47.303Z,18.98
2019-02-19T17:37:20.312Z,28.60
2019-02-19T17:39:50.437Z,26.93
2019-02-19T17:42:32.547Z,26.20
2019-02-19T17:45:18.043Z,25.37
2019-02-19T17:47:48.101Z,34.60
2019-02-19T17:50:18.463Z,34.85
2019-02-19T17:52:54.555Z,43.70
2019-02-19T17:55:30.481Z,71.40
2019-02-19T17:58:17.058Z,74.80
2019-02-19T18:01:02.488Z,45.20
2019-02-19T18:03:32.601Z,47.73
2019-02-19T18:06:08.756Z,64.25
2019-02-19T18:08:55.568Z,51.92
2019-02-19T18:11:43.919Z,66.22
2019-02-19T18:14:17.170Z,60.65
2019-02-19T18:16:49.955Z,65.20
2019-02-19T18:19:18.454Z,52.88
2019-02-19T18:21:46.949Z,56.98
2019-02-19T18:24:16.372Z,58.30
2019-02-19T18:26:44.922Z,68.30
2019-02-19T18:29:13.388Z,87.65
2019-02-19T18:31:41.894Z,63.02
2019-02-19T18:34:10.418Z,86.08
2019-02-19T18:36:39.444Z,108.40
2019-02-19T18:39:08.103Z,88.15
2019-02-19T18:41:36.694Z,87.37
2019-02-19T18:44:08.153Z,65.85
2019-02-19T18:46:36.730Z,84.42
2019-02-19T18:49:05.261Z,84.95
2019-02-19T18:51:33.795Z,70.35
2019-02-19T18:54:02.304Z,87.10
2019-02-19T18:56:30.824Z,158.78
2019-02-19T18:58:59.340Z,136.52
2019-02-19T19:01:27.851Z,128.65
2019-02-19T19:03:56.370Z,126.90
2019-02-19T19:06:24.855Z,157.78
2019-02-19T19:08:53.350Z,103.35
2019-02-19T19:11:21.855Z,194.82
2019-02-19T19:13:50.362Z,157.52
2019-02-19T19:16:18.862Z,156.45
2019-02-19T19:18:47.378Z,142.90
2019-02-19T19:21:15.883Z,83.35
2019-02-19T19:23:45.784Z,99.22
2019-02-19T19:26:15.521Z,94.07
2019-02-19T19:28:44.016Z,78.83
2019-02-19T19:31:12.530Z,84.55
2019-02-19T19:33:41.021Z,74.05
2019-02-19T19:36:09.559Z,82.92
2019-02-19T19:38:38.045Z,89.20
2019-02-19T19:41:06.544Z,87.78
2019-02-19T19:43:36.804Z,111.12
2019-02-19T19:46:05.255Z,135.75
2019-02-19T19:48:33.829Z,156.30
2019-02-19T19:51:02.328Z,132.97
2019-02-19T19:53:30.837Z,176.20
2019-02-19T19:55:59.374Z,228.47
2019-02-19T19:58:27.876Z,204.43
2019-02-19T20:00:56.386Z,133.67
2019-02-19T20:03:24.889Z,91.08
2019-02-19T20:05:53.391Z,86.65
2019-02-19T20:08:21.887Z,159.63
2019-02-19T20:10:50.379Z,178.75
2019-02-19T20:13:18.950Z,298.68
2019-02-19T20:15:47.428Z,96.67
2019-02-19T20:18:15.977Z,142.37
2019-02-19T20:20:44.467Z,152.68
2019-02-19T20:23:12.961Z,73.47
2019-02-19T20:25:41.465Z,216.15
2019-02-19T20:28:09.969Z,135.85
2019-02-19T20:30:38.461Z,59.75
2019-02-19T20:33:06.957Z,66.50
2019-02-19T20:35:35.460Z,81.10
2019-02-19T20:38:03.950Z,46.65
2019-02-19T20:40:32.451Z,46.28
2019-02-19T20:43:00.951Z,53.48
2019-02-19T20:45:29.445Z,56.15
2019-02-19T20:47:59.799Z,57.95
2019-02-19T20:50:28.193Z,57.58
2019-02-19T20:52:56.711Z,36.00
2019-02-19T20:55:25.208Z,44.00
2019-02-19T20:57:53.853Z,39.90
2019-02-19T21:00:22.435Z,33.88
2019-02-19T21:02:51.117Z,31.52
2019-02-19T21:05:19.698Z,41.13
2019-02-19T21:07:48.393Z,36.65
2019-02-19T21:10:18.257Z,58.83
2019-02-19T21:12:46.876Z,56.63
2019-02-19T21:15:15.455Z,58.48
2019-02-19T21:17:44.041Z,28.02
2019-02-19T21:20:13.038Z,28.15
2019-02-19T21:22:41.614Z,40.05
2019-02-19T21:25:11.119Z,41.75
2019-02-19T21:27:39.698Z,35.40
2019-02-19T21:30:11.382Z,36.08
2019-02-19T21:32:40.146Z,47.45
2019-02-19T21:35:09.435Z,59.10
2019-02-19T21:37:38.017Z,48.85
2019-02-19T21:40:14.690Z,46.55
2019-02-19T21:42:43.373Z,78.12
2019-02-19T21:45:13.079Z,86.42
2019-02-19T21:47:41.791Z,60.05
2019-02-19T21:50:12.402Z,50.45
2019-02-19T21:52:40.986Z,44.90
2019-02-19T21:55:10.761Z,38.28
2019-02-19T21:57:39.476Z,39.27
2019-02-19T22:00:15.022Z,41.70
2019-02-19T22:02:43.702Z,39.90
2019-02-19T22:05:12.387Z,49.00
2019-02-19T22:07:40.967Z,82.12
2019-02-19T22:10:11.332Z,53.55
2019-02-19T22:12:39.975Z,41.63
2019-02-19T22:15:15.358Z,36.55
2019-02-19T22:17:44.002Z,36.20
2019-02-19T22:20:34.501Z,41.60
2019-02-19T22:23:03.277Z,31.62
2019-02-19T22:25:31.862Z,102.72
2019-02-19T22:28:00.445Z,46.80
2019-02-19T22:30:29.128Z,47.95
2019-02-19T22:32:57.708Z,45.15
2019-02-19T22:35:26.446Z,60.20
2019-02-19T22:37:55.078Z,43.52
2019-02-19T22:40:23.759Z,63.87
2019-02-19T22:42:52.346Z,62.83
2019-02-19T22:45:21.084Z,49.45
2019-02-19T22:47:53.492Z,39.58
2019-02-19T22:50:20.239Z,64.75
2019-02-19T22:52:48.922Z,55.60
2019-02-19T22:55:35.631Z,47.48
2019-02-19T22:58:04.209Z,100.80
2019-02-19T23:00:48.153Z,53.52
2019-02-19T23:03:18.376Z,67.82
2019-02-19T23:05:47.054Z,54.73
2019-02-19T23:08:15.638Z,67.27
2019-02-19T23:10:44.224Z,69.85
2019-02-19T23:13:12.908Z,62.10
2019-02-19T23:15:41.492Z,74.07
2019-02-19T23:18:10.176Z,120.42
2019-02-19T23:20:38.755Z,160.55
2019-02-19T23:23:07.338Z,162.57
2019-02-19T23:25:36.020Z,136.25
2019-02-19T23:28:04.707Z,128.53
2019-02-19T23:30:33.774Z,85.17
2019-02-19T23:33:02.477Z,62.05
2019-02-19T23:35:32.696Z,71.95
2019-02-19T23:38:01.285Z,69.97
2019-02-19T23:40:29.866Z,63.52
2019-02-19T23:42:58.481Z,73.62
2019-02-19T23:45:27.085Z,65.25
2019-02-19T23:47:55.709Z,58.58
2019-02-19T23:50:24.294Z,63.30
2019-02-19T23:52:52.982Z,105.80
2019-02-19T23:55:21.564Z,72.45
2019-02-19T23:57:50.134Z,89.67
